createdAt,value
2019-02-28T00:00:11.244Z,23.90
2019-02-28T00:02:41.801Z,24.30
2019-02-28T00:05:10.564Z,23.27
2019-02-28T00:07:39.465Z,22.95
2019-02-28T00:10:08.433Z,23.20
2019-02-28T00:12:37.401Z,23.73
2019-02-28T00:15:07.594Z,22.17
2019-02-28T00:17:36.785Z,23.15
2019-02-28T00:20:06.839Z,23.42
2019-02-28T00:22:36.874Z,23.40
2019-02-28T00:25:07.134Z,23.22
2019-02-28T00:27:35.995Z,23.38
2019-02-28T00:30:06.918Z,22.20
2019-02-28T00:32:36.257Z,23.07
2019-02-28T00:35:05.685Z,21.60
2019-02-28T00:37:34.697Z,21.97
2019-02-28T00:40:06.606Z,21.57
2019-02-28T00:42:34.446Z,21.35
2019-02-28T00:45:03.766Z,21.62
2019-02-28T00:47:32.943Z,21.48
2019-02-28T00:50:01.815Z,22.02
2019-02-28T00:52:32.095Z,22.35
2019-02-28T00:55:01.073Z,22.35
2019-02-28T00:57:30.061Z,22.87
2019-02-28T00:59:58.726Z,23.50
2019-02-28T01:02:27.361Z,25.05
2019-02-28T01:04:56.065Z,22.90
2019-02-28T01:07:24.824Z,21.75
2019-02-28T01:09:53.514Z,21.85
2019-02-28T01:12:22.266Z,22.70
2019-02-28T01:14:50.884Z,21.80
2019-02-28T01:17:20.916Z,20.45
2019-02-28T01:19:49.893Z,22.42
2019-02-28T01:22:18.563Z,20.88
2019-02-28T01:24:47.397Z,22.60
2019-02-28T01:27:17.321Z,20.95
2019-02-28T01:29:46.714Z,21.17
2019-02-28T01:32:16.286Z,21.33
2019-02-28T01:34:45.131Z,20.68
2019-02-28T01:37:14.181Z,21.20
2019-02-28T01:39:42.997Z,21.60
2019-02-28T01:42:11.942Z,20.25
2019-02-28T01:44:40.999Z,20.62
2019-02-28T01:47:09.815Z,21.77
2019-02-28T01:49:38.464Z,22.17
2019-02-28T01:52:10.072Z,21.33
2019-02-28T01:54:37.874Z,22.00
2019-02-28T01:57:09.028Z,21.62
2019-02-28T01:59:37.316Z,20.15
2019-02-28T02:02:06.937Z,23.35
2019-02-28T02:04:36.166Z,22.17
2019-02-28T02:07:05.169Z,21.15
2019-02-28T02:09:34.132Z,23.35
2019-02-28T02:12:03.100Z,21.85
2019-02-28T02:14:31.855Z,22.48
2019-02-28T02:17:01.078Z,23.22
2019-02-28T02:19:30.638Z,22.77
2019-02-28T02:21:59.534Z,22.48
2019-02-28T02:24:28.924Z,22.15
2019-02-28T02:26:57.833Z,22.25
2019-02-28T02:29:26.662Z,22.20
2019-02-28T02:31:55.733Z,23.12
2019-02-28T02:34:28.287Z,24.12
2019-02-28T02:36:54.919Z,22.73
2019-02-28T02:39:23.651Z,22.30
2019-02-28T02:41:52.255Z,22.87
2019-02-28T02:44:21.321Z,23.07
2019-02-28T02:46:55.441Z,21.15
2019-02-28T02:49:20.419Z,23.83
2019-02-28T02:51:50.597Z,23.07
2019-02-28T02:54:20.190Z,22.30
2019-02-28T02:56:49.587Z,21.50
2019-02-28T02:59:18.581Z,21.97
2019-02-28T03:01:47.745Z,20.92
2019-02-28T03:04:21.432Z,21.23
2019-02-28T03:06:46.983Z,21.73
2019-02-28T03:09:15.661Z,19.67
2019-02-28T03:11:44.642Z,21.25
2019-02-28T03:14:16.517Z,21.10
2019-02-28T03:16:44.101Z,19.73
2019-02-28T03:19:12.876Z,21.62
2019-02-28T03:21:41.770Z,19.55
2019-02-28T03:24:14.799Z,21.05
2019-02-28T03:26:42.045Z,19.60
2019-02-28T03:29:11.815Z,19.80
2019-02-28T03:31:40.440Z,19.92
2019-02-28T03:34:12.920Z,18.92
2019-02-28T03:36:39.296Z,19.12
2019-02-28T03:39:08.249Z,19.12
2019-02-28T03:41:37.163Z,22.77
2019-02-28T03:44:05.995Z,23.22
2019-02-28T03:46:34.631Z,20.97
2019-02-28T03:49:10.987Z,20.72
2019-02-28T03:51:34.465Z,19.48
2019-02-28T03:54:03.493Z,20.17
2019-02-28T03:56:32.584Z,20.57
2019-02-28T03:59:01.352Z,19.25
2019-02-28T04:01:30.007Z,19.42
2019-02-28T04:03:58.772Z,20.20
2019-02-28T04:06:27.674Z,21.60
2019-02-28T04:08:56.805Z,19.25
2019-02-28T04:11:30.775Z,20.27
2019-02-28T04:13:56.923Z,20.52
2019-02-28T04:16:26.044Z,21.02
2019-02-28T04:18:55.046Z,19.87
2019-02-28T04:21:24.253Z,21.07
2019-02-28T04:23:53.087Z,19.27
2019-02-28T04:26:22.287Z,20.62
2019-02-28T04:28:54.658Z,19.92
2019-02-28T04:31:21.607Z,20.08
2019-02-28T04:33:50.528Z,20.88
2019-02-28T04:36:19.708Z,20.37
2019-02-28T04:38:51.739Z,20.95
2019-02-28T04:41:18.917Z,19.95
2019-02-28T04:43:47.934Z,19.50
2019-02-28T04:46:17.041Z,19.77
2019-02-28T04:48:48.428Z,20.65
2019-02-28T04:51:16.296Z,19.23
2019-02-28T04:53:45.175Z,20.62
2019-02-28T04:56:14.188Z,20.00
2019-02-28T04:58:43.103Z,19.05
2019-02-28T05:01:12.383Z,20.02
2019-02-28T05:03:42.226Z,18.67
2019-02-28T05:06:11.289Z,19.40
2019-02-28T05:08:40.007Z,19.70
2019-02-28T05:11:09.116Z,18.50
2019-02-28T05:13:37.831Z,19.92
2019-02-28T05:16:09.399Z,19.92
2019-02-28T05:18:37.411Z,20.50
2019-02-28T05:21:06.235Z,21.40
2019-02-28T05:23:36.043Z,20.57
2019-02-28T05:26:06.210Z,21.00
2019-02-28T05:28:40.278Z,19.75
2019-02-28T05:31:05.597Z,20.95
2019-02-28T05:33:34.565Z,20.70
2019-02-28T05:36:04.313Z,20.62
2019-02-28T05:38:33.346Z,21.62
2019-02-28T05:41:02.404Z,20.75
2019-02-28T05:43:32.211Z,20.30
2019-02-28T05:46:01.918Z,22.05
2019-02-28T05:48:30.968Z,21.02
2019-02-28T05:50:59.926Z,20.68
2019-02-28T05:53:29.004Z,20.92
2019-02-28T05:55:59.730Z,22.48
2019-02-28T05:58:28.115Z,21.37
2019-02-28T06:00:57.314Z,22.40
2019-02-28T06:03:26.047Z,23.32
2019-02-28T06:05:55.022Z,21.33
2019-02-28T06:08:23.914Z,23.50
2019-02-28T06:10:56.059Z,22.93
2019-02-28T06:13:23.549Z,22.65
2019-02-28T06:15:52.165Z,23.38
2019-02-28T06:18:21.204Z,21.73
2019-02-28T06:20:51.559Z,24.80
2019-02-28T06:23:20.872Z,23.83
2019-02-28T06:25:50.017Z,22.27
2019-02-28T06:28:18.844Z,23.80
2019-02-28T06:30:47.777Z,24.18
2019-02-28T06:33:16.551Z,23.77
2019-02-28T06:35:45.506Z,23.18
2019-02-28T06:38:16.259Z,23.50
2019-02-28T06:40:46.628Z,25.32
2019-02-28T06:43:18.733Z,25.05
2019-02-28T06:45:46.204Z,23.80
2019-02-28T06:48:14.932Z,24.80
2019-02-28T06:50:44.654Z,25.80
2019-02-28T06:53:14.774Z,27.05
2019-02-28T06:55:49.750Z,26.95
2019-02-28T06:58:18.757Z,26.85
2019-02-28T07:00:49.027Z,25.08
2019-02-28T07:03:18.398Z,27.32
2019-02-28T07:05:47.391Z,26.50
2019-02-28T07:08:16.429Z,27.27
2019-02-28T07:10:48.381Z,26.97
2019-02-28T07:13:17.040Z,25.43
2019-02-28T07:15:45.810Z,28.07
2019-02-28T07:18:14.496Z,26.77
2019-02-28T07:20:43.463Z,27.25
2019-02-28T07:23:12.384Z,25.37
2019-02-28T07:25:41.202Z,28.92
2019-02-28T07:28:10.350Z,28.38
2019-02-28T07:30:39.438Z,29.55
2019-02-28T07:33:10.565Z,30.90
2019-02-28T07:35:39.031Z,34.25
2019-02-28T07:38:07.884Z,30.85
2019-02-28T07:40:36.871Z,31.65
2019-02-28T07:43:06.055Z,31.60
2019-02-28T07:45:34.802Z,33.48
2019-02-28T07:48:03.669Z,32.45
2019-02-28T07:50:32.456Z,34.60
2019-02-28T07:53:01.187Z,34.33
2019-02-28T07:55:30.388Z,29.07
2019-02-28T07:57:59.818Z,26.12
2019-02-28T08:00:28.745Z,31.45
2019-02-28T08:02:57.903Z,32.75
2019-02-28T08:05:31.045Z,32.23
2019-02-28T08:07:57.078Z,32.53
2019-02-28T08:10:26.903Z,33.05
2019-02-28T08:12:56.002Z,32.03
2019-02-28T08:15:25.769Z,32.58
2019-02-28T08:17:54.676Z,35.03
2019-02-28T08:20:23.509Z,29.12
2019-02-28T08:22:56.434Z,33.10
2019-02-28T08:25:22.998Z,33.10
2019-02-28T08:27:51.698Z,34.45
2019-02-28T08:30:22.137Z,33.80
2019-02-28T08:32:52.146Z,33.92
2019-02-28T08:35:20.908Z,36.13
2019-02-28T08:37:55.667Z,37.08
2019-02-28T08:40:26.363Z,36.63
2019-02-28T08:42:54.067Z,37.60
2019-02-28T08:45:22.945Z,39.70
2019-02-28T08:47:55.391Z,37.17
2019-02-28T08:50:23.690Z,39.30
2019-02-28T08:52:54.358Z,36.38
2019-02-28T08:55:28.743Z,38.15
2019-02-28T08:57:55.937Z,35.75
2019-02-28T09:00:24.354Z,36.90
2019-02-28T09:02:53.869Z,37.00
2019-02-28T09:05:26.176Z,43.73
2019-02-28T09:07:53.770Z,41.68
2019-02-28T09:10:23.407Z,37.85
2019-02-28T09:12:52.638Z,40.33
2019-02-28T09:15:21.580Z,41.65
2019-02-28T09:17:51.860Z,41.68
2019-02-28T09:20:21.806Z,43.00
2019-02-28T09:22:50.920Z,41.48
2019-02-28T09:25:22.149Z,41.23
2019-02-28T09:27:51.272Z,45.80
2019-02-28T09:30:21.805Z,43.58
2019-02-28T09:32:50.963Z,43.65
2019-02-28T09:35:19.998Z,46.65
2019-02-28T09:37:49.198Z,46.18
2019-02-28T09:40:18.165Z,43.80
2019-02-28T09:42:47.914Z,42.98
2019-02-28T09:45:18.319Z,42.40
2019-02-28T09:47:47.177Z,44.75
2019-02-28T09:50:19.386Z,43.90
2019-02-28T09:52:47.368Z,46.77
2019-02-28T09:55:17.109Z,40.43
2019-02-28T09:57:45.818Z,44.35
2019-02-28T10:00:15.703Z,45.35
2019-02-28T10:02:45.103Z,46.33
2019-02-28T10:05:14.019Z,48.55
2019-02-28T10:07:43.706Z,45.88
2019-02-28T10:10:20.758Z,47.93
2019-02-28T10:12:49.894Z,47.30
2019-02-28T10:15:24.769Z,48.68
2019-02-28T10:17:54.949Z,46.33
2019-02-28T10:20:27.166Z,47.95
2019-02-28T10:22:55.927Z,42.65
2019-02-28T10:25:25.090Z,51.92
2019-02-28T10:27:54.645Z,50.48
2019-02-28T10:30:31.726Z,49.60
2019-02-28T10:32:57.477Z,48.05
2019-02-28T10:35:26.176Z,49.25
2019-02-28T10:37:58.373Z,48.85
2019-02-28T10:40:27.028Z,50.70
2019-02-28T10:42:55.906Z,50.10
2019-02-28T10:45:25.282Z,51.95
2019-02-28T10:47:54.119Z,55.33
2019-02-28T10:50:31.931Z,53.60
2019-02-28T10:52:57.418Z,48.63
2019-02-28T10:55:26.214Z,54.75
2019-02-28T10:57:54.905Z,58.65
2019-02-28T11:00:32.784Z,52.40
2019-02-28T11:03:00.537Z,52.25
2019-02-28T11:05:31.128Z,51.70
2019-02-28T11:07:59.810Z,46.68
2019-02-28T11:10:38.898Z,52.23
2019-02-28T11:13:08.974Z,51.73
2019-02-28T11:15:37.859Z,49.08
2019-02-28T11:18:09.736Z,48.08
2019-02-28T11:20:37.300Z,48.45
2019-02-28T11:23:07.612Z,48.20
2019-02-28T11:25:36.776Z,50.03
2019-02-28T11:28:05.686Z,53.20
2019-02-28T11:30:36.089Z,48.20
2019-02-28T11:33:05.439Z,46.92
2019-02-28T11:35:34.148Z,47.83
2019-02-28T11:38:04.831Z,47.15
2019-02-28T11:40:33.257Z,45.08
2019-02-28T11:43:03.678Z,44.63
2019-02-28T11:45:36.227Z,41.28
2019-02-28T11:48:06.092Z,45.33
2019-02-28T11:50:34.787Z,46.92
2019-02-28T11:53:05.844Z,45.92
2019-02-28T11:55:33.964Z,48.55
2019-02-28T11:58:02.808Z,50.78
2019-02-28T12:00:35.658Z,52.98
2019-02-28T12:03:05.336Z,51.63
2019-02-28T12:05:33.366Z,44.93
2019-02-28T12:08:01.988Z,47.25
2019-02-28T12:10:30.851Z,45.98
2019-02-28T12:12:59.673Z,43.13
2019-02-28T12:15:38.226Z,43.35
2019-02-28T12:18:05.883Z,45.25
2019-02-28T12:20:34.704Z,42.43
2019-02-28T12:23:03.277Z,48.75
2019-02-28T12:25:31.928Z,46.70
2019-02-28T12:28:02.920Z,42.23
2019-02-28T12:30:34.842Z,44.95
2019-02-28T12:33:03.646Z,42.60
2019-02-28T12:35:39.953Z,40.78
2019-02-28T12:38:03.937Z,42.08
2019-02-28T12:40:34.120Z,42.67
2019-02-28T12:43:05.386Z,39.45
2019-02-28T12:45:35.426Z,38.73
2019-02-28T12:48:04.184Z,41.63
2019-02-28T12:50:33.157Z,37.98
2019-02-28T12:53:01.834Z,42.70
2019-02-28T12:55:30.489Z,40.60
2019-02-28T12:57:59.764Z,38.15
2019-02-28T13:00:29.920Z,42.25
2019-02-28T13:02:58.835Z,38.40
2019-02-28T13:05:28.033Z,36.23
2019-02-28T13:07:56.969Z,37.33
2019-02-28T13:10:27.917Z,37.50
2019-02-28T13:13:05.627Z,38.53
2019-02-28T13:15:27.679Z,38.30
2019-02-28T13:17:56.568Z,38.20
2019-02-28T13:20:32.155Z,35.75
2019-02-28T13:22:59.528Z,37.78
2019-02-28T13:25:28.449Z,36.42
2019-02-28T13:27:57.378Z,36.60
2019-02-28T13:30:26.926Z,35.33
2019-02-28T13:32:56.585Z,35.63
2019-02-28T13:35:27.588Z,35.05
2019-02-28T13:37:56.550Z,33.92
2019-02-28T13:40:25.461Z,36.77
2019-02-28T13:42:54.107Z,36.50
2019-02-28T13:45:24.020Z,34.18
2019-02-28T13:47:52.961Z,34.53
2019-02-28T13:50:25.642Z,32.03
2019-02-28T13:52:53.874Z,31.20
2019-02-28T13:55:22.794Z,33.00
2019-02-28T13:57:51.825Z,31.07
2019-02-28T14:00:22.154Z,29.07
2019-02-28T14:02:51.971Z,29.80
2019-02-28T14:05:20.572Z,31.85
2019-02-28T14:07:49.207Z,30.90
2019-02-28T14:10:18.789Z,30.48
2019-02-28T14:12:47.602Z,31.50
2019-02-28T14:15:17.880Z,31.95
2019-02-28T14:17:46.887Z,32.10
2019-02-28T14:20:15.734Z,30.23
2019-02-28T14:22:45.799Z,28.87
2019-02-28T14:25:17.185Z,28.50
2019-02-28T14:27:46.425Z,30.35
2019-02-28T14:30:15.997Z,33.08
2019-02-28T14:32:45.611Z,31.45
2019-02-28T14:35:16.335Z,31.30
2019-02-28T14:37:45.228Z,33.73
2019-02-28T14:40:17.967Z,29.48
2019-02-28T14:42:45.315Z,26.33
2019-02-28T14:45:18.741Z,25.72
2019-02-28T14:47:56.522Z,25.00
2019-02-28T14:50:18.837Z,25.50
2019-02-28T14:52:49.536Z,29.65
2019-02-28T14:55:19.196Z,30.12
2019-02-28T14:57:48.865Z,29.72
2019-02-28T15:00:20.073Z,25.32
2019-02-28T15:02:50.706Z,29.60
2019-02-28T15:05:20.666Z,26.50
2019-02-28T15:07:49.905Z,30.10
2019-02-28T15:10:20.404Z,31.33
2019-02-28T15:12:49.308Z,32.38
2019-02-28T15:15:21.475Z,31.15
2019-02-28T15:17:50.489Z,33.88
2019-02-28T15:20:19.716Z,35.92
2019-02-28T15:22:48.808Z,31.35
2019-02-28T15:25:21.705Z,26.10
2019-02-28T15:27:50.679Z,27.27
2019-02-28T15:30:21.017Z,29.67
2019-02-28T15:32:50.678Z,24.65
2019-02-28T15:35:21.188Z,26.07
2019-02-28T15:37:50.025Z,24.80
2019-02-28T15:40:26.448Z,26.93
2019-02-28T15:42:55.405Z,26.27
2019-02-28T15:45:26.772Z,25.80
2019-02-28T15:47:59.113Z,25.08
2019-02-28T15:50:28.590Z,26.57
2019-02-28T15:52:58.109Z,24.87
2019-02-28T15:55:27.016Z,24.72
2019-02-28T15:57:56.268Z,24.07
2019-02-28T16:00:28.383Z,23.57
2019-02-28T16:02:56.872Z,24.52
2019-02-28T16:05:25.785Z,25.97
2019-02-28T16:07:54.762Z,30.68
2019-02-28T16:10:33.646Z,27.50
2019-02-28T16:13:02.601Z,26.12
2019-02-28T16:15:31.638Z,31.77
2019-02-28T16:18:00.477Z,22.13
2019-02-28T16:20:31.961Z,27.20
2019-02-28T16:23:00.001Z,25.25
2019-02-28T16:25:30.095Z,23.47
2019-02-28T16:27:59.154Z,30.00
2019-02-28T16:30:28.844Z,28.17
2019-02-28T16:32:58.225Z,31.85
2019-02-28T16:35:28.947Z,24.95
2019-02-28T16:37:57.393Z,27.58
2019-02-28T16:40:27.302Z,31.93
2019-02-28T16:42:56.035Z,29.32
2019-02-28T16:45:30.256Z,38.00
2019-02-28T16:48:01.959Z,37.78
2019-02-28T16:50:29.397Z,36.53
2019-02-28T16:52:58.289Z,27.62
2019-02-28T16:55:27.438Z,25.95
2019-02-28T16:57:57.464Z,24.35
2019-02-28T17:00:26.389Z,27.15
2019-02-28T17:02:55.468Z,28.57
2019-02-28T17:05:28.051Z,27.42
2019-02-28T17:07:54.976Z,25.45
2019-02-28T17:10:25.147Z,25.77
2019-02-28T17:13:11.935Z,26.70
2019-02-28T17:15:48.092Z,25.40
2019-02-28T17:18:21.102Z,24.47
2019-02-28T17:20:48.748Z,24.77
2019-02-28T17:23:18.748Z,25.75
2019-02-28T17:25:47.777Z,24.20
2019-02-28T17:28:18.182Z,26.40
2019-02-28T17:30:48.348Z,24.12
2019-02-28T17:33:17.462Z,27.67
2019-02-28T17:35:46.291Z,26.80
2019-02-28T17:38:15.322Z,30.23
2019-02-28T17:40:44.290Z,32.15
2019-02-28T17:43:12.913Z,31.45
2019-02-28T17:45:41.696Z,32.83
2019-02-28T17:48:28.169Z,35.78
2019-02-28T17:51:07.739Z,39.15
2019-02-28T17:53:38.019Z,42.45
2019-02-28T17:56:24.632Z,42.45
2019-02-28T17:59:09.828Z,47.50
2019-02-28T18:01:40.616Z,46.88
2019-02-28T18:04:27.225Z,47.23
2019-02-28T18:06:57.471Z,49.90
2019-02-28T18:09:33.395Z,49.53
2019-02-28T18:12:21.783Z,51.73
2019-02-28T18:14:54.625Z,54.05
2019-02-28T18:17:24.727Z,68.55
2019-02-28T18:19:55.178Z,76.87
2019-02-28T18:22:31.636Z,63.92
2019-02-28T18:25:18.396Z,63.87
2019-02-28T18:28:00.797Z,61.15
2019-02-28T18:30:47.581Z,61.18
2019-02-28T18:33:19.335Z,65.20
2019-02-28T18:35:47.807Z,69.62
2019-02-28T18:38:16.420Z,67.90
2019-02-28T18:40:45.303Z,56.00
2019-02-28T18:43:13.923Z,50.60
2019-02-28T18:45:42.835Z,51.18
2019-02-28T18:48:14.588Z,50.40
2019-02-28T18:50:42.518Z,49.45
2019-02-28T18:53:12.461Z,49.50
2019-02-28T18:55:41.203Z,49.40
2019-02-28T18:58:10.846Z,51.20
2019-02-28T19:00:39.746Z,53.40
2019-02-28T19:03:08.638Z,54.18
2019-02-28T19:05:37.469Z,50.67
2019-02-28T19:08:06.191Z,53.02
2019-02-28T19:10:35.196Z,59.85
2019-02-28T19:13:04.083Z,58.30
2019-02-28T19:15:33.345Z,57.30
2019-02-28T19:18:02.185Z,52.58
2019-02-28T19:20:31.989Z,55.38
2019-02-28T19:23:00.932Z,65.72
2019-02-28T19:25:29.803Z,71.40
2019-02-28T19:27:58.479Z,75.83
2019-02-28T19:30:27.315Z,75.47
2019-02-28T19:32:56.003Z,66.00
2019-02-28T19:35:24.644Z,59.98
2019-02-28T19:37:53.254Z,57.23
2019-02-28T19:40:21.866Z,55.58
2019-02-28T19:42:50.493Z,49.25
2019-02-28T19:45:21.240Z,42.78
2019-02-28T19:47:50.117Z,40.20
2019-02-28T19:50:18.935Z,35.52
2019-02-28T19:52:47.664Z,37.88
2019-02-28T19:55:16.417Z,38.00
2019-02-28T19:57:45.252Z,41.95
2019-02-28T20:00:16.499Z,46.02
2019-02-28T20:02:45.529Z,45.73
2019-02-28T20:05:14.347Z,48.05
2019-02-28T20:07:43.055Z,47.25
2019-02-28T20:10:15.855Z,47.80
2019-02-28T20:12:44.606Z,44.55
